Time;durP1;ratioP1;P1;durP2;ratioP2;P2;SDS_P1;SDS_P2;PMS_P1;PMS_P2;Temp;Humidity;BMP_temperature;BMP_pressure;BME280_temperature;BME280_humidity;BME280_pressure;Samples;Min_cycle;Max_cycle;Signal;HPM_P1;HPM_P2
2022/07/20 00:01:52;;;;;;;7.50;3.97;;;;;;;;;;5094259;28;20199;-83
2022/07/20 00:04:21;;;;;;;5.20;3.77;;;;;;;;;;5076342;28;20196;-83
2022/07/20 00:06:49;;;;;;;3.80;3.40;;;;;;;;;;5075936;28;20312;-82
2022/07/20 00:12:05;;;;;;;3.83;3.43;;;;;;;;;;5094146;28;20254;-83
2022/07/20 00:14:33;;;;;;;4.77;3.50;;;;;;;;;;5080678;28;20217;-82
2022/07/20 00:17:01;;;;;;;2.87;2.53;;;;;;;;;;5076067;28;20227;-82
2022/07/20 00:19:30;;;;;;;2.00;1.63;;;;;;;;;;5076756;28;20249;-82
2022/07/20 00:22:00;;;;;;;3.67;2.80;;;;;;;;;;5075659;28;20196;-83
2022/07/20 00:24:31;;;;;;;3.23;2.93;;;;;;;;;;5081215;28;20239;-83
2022/07/20 00:26:59;;;;;;;5.13;3.27;;;;;;;;;;5093829;28;20266;-83
2022/07/20 00:29:29;;;;;;;4.10;3.43;;;;;;;;;;5093103;28;20204;-83
2022/07/20 00:31:58;;;;;;;2.63;2.40;;;;;;;;;;5076320;28;20211;-81
2022/07/20 00:34:26;;;;;;;4.37;3.20;;;;;;;;;;5093724;28;20232;-81
2022/07/20 00:36:54;;;;;;;4.93;3.17;;;;;;;;;;5072506;28;20184;-81
2022/07/20 00:39:23;;;;;;;3.73;2.93;;;;;;;;;;5076291;28;20196;-82
2022/07/20 00:41:51;;;;;;;1.97;1.80;;;;;;;;;;5075881;28;20206;-81
2022/07/20 00:44:27;;;;;;;2.77;1.80;;;;;;;;;;5075975;28;20220;-82
2022/07/20 00:46:57;;;;;;;0.67;0.67;;;;;;;;;;5089424;28;20205;-81
2022/07/20 00:49:25;;;;;;;3.70;3.30;;;;;;;;;;5082135;28;20246;-82
2022/07/20 00:51:54;;;;;;;4.80;3.53;;;;;;;;;;5073417;28;20194;-81
2022/07/20 00:54:22;;;;;;;6.33;3.37;;;;;;;;;;5081901;28;20196;-82
2022/07/20 00:56:51;;;;;;;4.33;3.83;;;;;;;;;;5075727;28;20225;-82
2022/07/20 00:59:20;;;;;;;5.60;3.77;;;;;;;;;;5076063;28;20200;-82
2022/07/20 01:01:48;;;;;;;5.43;2.83;;;;;;;;;;5075597;28;20226;-82
2022/07/20 01:04:18;;;;;;;3.73;3.33;;;;;;;;;;5075437;28;20299;-82
2022/07/20 01:06:46;;;;;;;0.93;0.93;;;;;;;;;;5093299;28;20234;-82
2022/07/20 01:09:16;;;;;;;1.00;0.57;;;;;;;;;;5075928;28;20199;-82
2022/07/20 01:11:45;;;;;;;0.97;0.97;;;;;;;;;;5075375;28;20249;-82
2022/07/20 01:14:13;;;;;;;1.17;1.17;;;;;;;;;;5088452;28;20196;-82
2022/07/20 01:16:42;;;;;;;0.20;0.20;;;;;;;;;;5075391;28;20241;-82
2022/07/20 01:19:10;;;;;;;3.20;2.20;;;;;;;;;;5075510;28;20204;-83
2022/07/20 01:21:41;;;;;;;1.27;1.17;;;;;;;;;;5075273;28;20210;-82
2022/07/20 01:24:10;;;;;;;4.77;3.57;;;;;;;;;;5096674;28;20206;-82
2022/07/20 01:26:38;;;;;;;5.10;3.50;;;;;;;;;;5074990;28;20302;-82
2022/07/20 01:29:07;;;;;;;2.63;1.93;;;;;;;;;;5086662;28;20208;-82
2022/07/20 01:31:35;;;;;;;5.17;2.70;;;;;;;;;;5076150;28;20191;-82
2022/07/20 01:34:04;;;;;;;4.97;3.60;;;;;;;;;;5078976;28;20206;-82
2022/07/20 01:36:33;;;;;;;4.47;3.17;;;;;;;;;;5079272;28;20203;-82
2022/07/20 01:39:02;;;;;;;7.57;3.47;;;;;;;;;;5078954;28;20199;-82
2022/07/20 01:41:31;;;;;;;2.30;2.07;;;;;;;;;;5082597;28;20230;-83
2022/07/20 01:43:59;;;;;;;6.33;4.43;;;;;;;;;;5078835;28;20218;-82
2022/07/20 01:46:28;;;;;;;6.53;4.70;;;;;;;;;;5085731;28;20251;-83
2022/07/20 01:48:56;;;;;;;5.73;4.10;;;;;;;;;;5064843;28;20254;-83
2022/07/20 01:51:25;;;;;;;5.73;4.07;;;;;;;;;;5084604;28;20203;-83
2022/07/20 01:53:53;;;;;;;3.53;3.20;;;;;;;;;;5076380;28;20198;-83
2022/07/20 01:56:23;;;;;;;5.10;3.60;;;;;;;;;;5083233;28;20321;-83
2022/07/20 01:58:51;;;;;;;6.73;3.80;;;;;;;;;;5078636;28;20194;-83
2022/07/20 02:01:20;;;;;;;4.37;3.67;;;;;;;;;;5095701;28;20193;-82
2022/07/20 02:03:50;;;;;;;6.47;4.90;;;;;;;;;;5078899;28;20198;-83
2022/07/20 02:06:18;;;;;;;4.53;4.10;;;;;;;;;;5075499;28;20205;-83
2022/07/20 02:08:47;;;;;;;7.07;4.17;;;;;;;;;;5077033;28;20233;-83
2022/07/20 02:11:16;;;;;;;4.43;3.63;;;;;;;;;;5078522;28;20194;-82
2022/07/20 02:13:46;;;;;;;4.00;3.17;;;;;;;;;;5096556;28;20201;-83
2022/07/20 02:16:17;;;;;;;6.10;4.37;;;;;;;;;;5064884;28;20200;-82
2022/07/20 02:18:46;;;;;;;4.63;3.03;;;;;;;;;;5096114;28;20205;-82
2022/07/20 02:21:16;;;;;;;4.73;3.90;;;;;;;;;;5092036;28;20199;-82
2022/07/20 02:23:45;;;;;;;7.03;4.30;;;;;;;;;;5077819;28;20208;-83
2022/07/20 02:26:13;;;;;;;5.23;4.20;;;;;;;;;;5077038;28;20189;-82
2022/07/20 02:28:42;;;;;;;5.00;3.53;;;;;;;;;;5077236;28;20217;-82
2022/07/20 02:31:11;;;;;;;5.93;4.40;;;;;;;;;;5086557;28;20243;-82
2022/07/20 02:33:40;;;;;;;5.63;3.33;;;;;;;;;;5074297;28;20209;-82
2022/07/20 02:36:09;;;;;;;8.33;4.90;;;;;;;;;;5077838;28;20217;-82
2022/07/20 02:38:37;;;;;;;17.17;8.73;;;;;;;;;;5077648;28;20195;-82
2022/07/20 02:41:06;;;;;;;6.33;4.80;;;;;;;;;;5088421;28;20248;-81
2022/07/20 02:43:34;;;;;;;8.53;6.30;;;;;;;;;;5089364;28;20213;-82
2022/07/20 02:46:02;;;;;;;9.77;5.60;;;;;;;;;;5080802;28;20200;-83
2022/07/20 02:48:32;;;;;;;4.60;4.10;;;;;;;;;;5095705;28;20214;-83
2022/07/20 02:51:01;;;;;;;13.10;5.60;;;;;;;;;;5078074;28;20219;-83
2022/07/20 02:53:29;;;;;;;14.93;6.40;;;;;;;;;;5077673;28;20208;-83
2022/07/20 02:55:59;;;;;;;16.57;8.77;;;;;;;;;;5092926;28;20192;-83
2022/07/20 02:58:27;;;;;;;28.03;9.33;;;;;;;;;;5095767;28;20197;-82
2022/07/20 03:00:57;;;;;;;10.67;7.97;;;;;;;;;;5095825;28;20197;-83
2022/07/20 03:03:26;;;;;;;7.40;4.93;;;;;;;;;;5077586;28;20272;-82
2022/07/20 03:05:55;;;;;;;9.87;6.20;;;;;;;;;;5074188;28;20224;-82
2022/07/20 03:08:24;;;;;;;15.63;9.63;;;;;;;;;;5077601;28;20230;-82
2022/07/20 03:10:52;;;;;;;13.87;9.53;;;;;;;;;;5077640;28;20220;-83
2022/07/20 03:13:21;;;;;;;22.13;12.43;;;;;;;;;;5081832;28;20295;-82
2022/07/20 03:15:49;;;;;;;8.83;6.80;;;;;;;;;;5077019;28;20189;-82
2022/07/20 03:18:17;;;;;;;4.93;3.87;;;;;;;;;;5077101;28;20229;-82
2022/07/20 03:20:46;;;;;;;11.57;8.00;;;;;;;;;;5094060;28;20211;-83
2022/07/20 03:23:16;;;;;;;33.60;13.07;;;;;;;;;;5079869;28;20200;-81
2022/07/20 03:25:44;;;;;;;16.23;7.70;;;;;;;;;;5077235;28;20231;-81
2022/07/20 03:28:12;;;;;;;7.77;5.67;;;;;;;;;;5076939;28;20223;-83
2022/07/20 03:30:41;;;;;;;14.30;5.37;;;;;;;;;;5095021;28;20219;-83
2022/07/20 03:33:09;;;;;;;15.80;10.27;;;;;;;;;;5080444;28;20205;-83
2022/07/20 03:35:37;;;;;;;5.77;4.33;;;;;;;;;;5081513;28;20228;-82
2022/07/20 03:38:06;;;;;;;15.80;10.13;;;;;;;;;;5095312;28;20202;-82
2022/07/20 03:40:36;;;;;;;5.13;4.67;;;;;;;;;;5095294;28;20259;-82
2022/07/20 03:43:04;;;;;;;8.00;6.40;;;;;;;;;;5093876;28;20212;-83
2022/07/20 03:45:32;;;;;;;8.70;6.63;;;;;;;;;;5094075;28;20204;-83
2022/07/20 03:48:01;;;;;;;9.40;6.47;;;;;;;;;;5073365;28;20295;-82
2022/07/20 03:50:29;;;;;;;10.27;7.60;;;;;;;;;;5076461;28;20239;-83
2022/07/20 03:52:57;;;;;;;10.70;7.23;;;;;;;;;;5073466;28;20216;-83
2022/07/20 03:55:26;;;;;;;13.37;9.83;;;;;;;;;;5075225;28;20203;-83
2022/07/20 03:57:56;;;;;;;3.90;3.53;;;;;;;;;;5074099;28;20207;-83
2022/07/20 04:00:24;;;;;;;13.97;10.23;;;;;;;;;;5076376;28;20204;-83
2022/07/20 04:02:53;;;;;;;22.13;8.57;;;;;;;;;;5076383;28;20205;-83
2022/07/20 04:05:21;;;;;;;12.23;8.27;;;;;;;;;;5076343;28;20199;-82
2022/07/20 04:07:49;;;;;;;5.03;4.53;;;;;;;;;;5076617;28;20218;-82
2022/07/20 04:10:18;;;;;;;4.83;3.60;;;;;;;;;;5076785;28;20202;-82
2022/07/20 04:12:52;;;;;;;12.70;7.13;;;;;;;;;;5073200;28;20194;-83
2022/07/20 04:15:22;;;;;;;15.10;11.37;;;;;;;;;;5076653;28;20201;-82
2022/07/20 04:17:50;;;;;;;20.43;10.90;;;;;;;;;;5076514;28;20232;-82
2022/07/20 04:20:18;;;;;;;16.47;11.77;;;;;;;;;;5076364;28;20191;-82
2022/07/20 04:22:47;;;;;;;13.97;9.63;;;;;;;;;;5079772;28;20215;-83
2022/07/20 04:25:15;;;;;;;15.30;10.80;;;;;;;;;;5084393;28;20200;-83
2022/07/20 04:27:44;;;;;;;13.70;10.10;;;;;;;;;;5089247;28;20193;-83
2022/07/20 04:30:13;;;;;;;21.53;12.97;;;;;;;;;;5076482;28;20204;-83
2022/07/20 04:32:42;;;;;;;22.63;11.10;;;;;;;;;;5076343;28;20193;-83
2022/07/20 04:35:11;;;;;;;18.30;11.83;;;;;;;;;;5079834;28;20219;-83
2022/07/20 04:37:40;;;;;;;22.23;11.50;;;;;;;;;;5084822;28;20209;-83
2022/07/20 04:40:09;;;;;;;19.40;12.87;;;;;;;;;;5075995;28;20200;-83
2022/07/20 04:42:37;;;;;;;14.20;12.77;;;;;;;;;;5076318;28;20197;-83
2022/07/20 04:45:06;;;;;;;23.80;14.27;;;;;;;;;;5075521;28;20201;-83
2022/07/20 04:47:34;;;;;;;27.33;17.43;;;;;;;;;;5076237;28;20244;-83
2022/07/20 04:50:04;;;;;;;15.87;11.80;;;;;;;;;;5075868;28;20236;-82
2022/07/20 04:52:32;;;;;;;27.20;14.50;;;;;;;;;;5092915;28;20362;-82
2022/07/20 04:55:02;;;;;;;14.97;10.83;;;;;;;;;;5063754;28;20239;-83
2022/07/20 04:57:31;;;;;;;20.47;11.30;;;;;;;;;;5075440;28;20226;-83
2022/07/20 04:59:59;;;;;;;13.53;10.33;;;;;;;;;;5086596;28;20191;-83
2022/07/20 05:02:28;;;;;;;12.77;11.27;;;;;;;;;;5095608;28;20202;-83
2022/07/20 05:04:56;;;;;;;7.83;7.13;;;;;;;;;;5087895;28;20205;-83
2022/07/20 05:07:26;;;;;;;10.97;9.87;;;;;;;;;;5079250;28;20203;-83
2022/07/20 05:09:54;;;;;;;23.07;13.37;;;;;;;;;;5098097;28;20217;-82
2022/07/20 05:12:23;;;;;;;9.10;7.80;;;;;;;;;;5083585;28;20216;-83
2022/07/20 05:14:51;;;;;;;11.57;7.80;;;;;;;;;;5090479;28;20215;-83
2022/07/20 05:17:20;;;;;;;13.80;6.90;;;;;;;;;;5091849;28;20211;-82
2022/07/20 05:19:48;;;;;;;13.73;7.83;;;;;;;;;;5083088;28;20201;-83
2022/07/20 05:22:16;;;;;;;11.70;8.53;;;;;;;;;;5080106;28;20203;-82
2022/07/20 05:24:46;;;;;;;15.10;7.90;;;;;;;;;;5079472;28;20203;-82
2022/07/20 05:27:15;;;;;;;22.97;17.87;;;;;;;;;;5079950;28;20208;-82
2022/07/20 05:29:43;;;;;;;9.67;4.70;;;;;;;;;;5097595;28;20214;-83
2022/07/20 05:32:11;;;;;;;14.93;7.87;;;;;;;;;;5097282;28;20192;-81
2022/07/20 05:34:40;;;;;;;13.80;11.83;;;;;;;;;;5097226;28;20228;-81
2022/07/20 05:37:08;;;;;;;17.47;12.80;;;;;;;;;;5078902;28;20199;-81
2022/07/20 05:39:37;;;;;;;12.23;6.27;;;;;;;;;;5097012;28;20198;-81
2022/07/20 05:42:07;;;;;;;21.57;13.33;;;;;;;;;;5096427;28;20208;-81
2022/07/20 05:44:35;;;;;;;17.00;10.87;;;;;;;;;;5079573;28;20215;-81
2022/07/20 05:47:06;;;;;;;18.03;14.67;;;;;;;;;;5079173;28;20238;-82
2022/07/20 05:49:35;;;;;;;23.83;14.83;;;;;;;;;;5096952;28;20240;-81
2022/07/20 05:52:03;;;;;;;17.20;11.53;;;;;;;;;;5097615;28;20205;-82
2022/07/20 05:54:32;;;;;;;18.83;13.20;;;;;;;;;;5078885;28;20201;-82
2022/07/20 05:57:00;;;;;;;17.50;12.37;;;;;;;;;;5083046;28;20207;-82
2022/07/20 05:59:30;;;;;;;12.53;8.60;;;;;;;;;;5090147;28;20297;-81
2022/07/20 06:01:58;;;;;;;21.10;13.77;;;;;;;;;;5090920;28;20201;-81
2022/07/20 06:04:26;;;;;;;18.83;11.93;;;;;;;;;;5097358;28;20204;-81
2022/07/20 06:06:55;;;;;;;10.77;6.97;;;;;;;;;;5078862;28;20200;-80
2022/07/20 06:09:23;;;;;;;10.83;6.07;;;;;;;;;;5074858;28;20209;-82
2022/07/20 06:11:53;;;;;;;9.63;7.87;;;;;;;;;;5078734;28;20276;-81
2022/07/20 06:14:21;;;;;;;17.40;10.60;;;;;;;;;;5096753;28;20204;-81
2022/07/20 06:16:51;;;;;;;10.67;7.43;;;;;;;;;;5075481;28;20220;-82
2022/07/20 06:19:19;;;;;;;8.30;4.37;;;;;;;;;;5075842;28;20246;-82
2022/07/20 06:21:48;;;;;;;14.70;8.27;;;;;;;;;;5085796;28;20208;-83
2022/07/20 06:24:16;;;;;;;13.07;8.50;;;;;;;;;;5097278;28;20207;-83
2022/07/20 06:26:46;;;;;;;10.47;5.87;;;;;;;;;;5096982;28;20199;-83
2022/07/20 06:29:14;;;;;;;12.60;8.97;;;;;;;;;;5078656;28;20212;-82
2022/07/20 06:31:43;;;;;;;23.00;7.83;;;;;;;;;;5094531;28;20196;-82
2022/07/20 06:34:33;;;;;;;6.90;5.50;;;;;;;;;;5087834;28;20227;-83
2022/07/20 06:37:02;;;;;;;13.93;9.00;;;;;;;;;;5096315;28;20204;-82
2022/07/20 06:39:30;;;;;;;14.80;9.03;;;;;;;;;;5095574;28;20204;-82
2022/07/20 06:41:59;;;;;;;8.37;6.17;;;;;;;;;;5075726;28;20505;-83
2022/07/20 06:44:27;;;;;;;12.13;7.53;;;;;;;;;;5078734;28;20210;-82
2022/07/20 06:46:55;;;;;;;15.40;7.83;;;;;;;;;;5096061;28;20201;-82
2022/07/20 06:49:25;;;;;;;13.57;6.40;;;;;;;;;;5094318;28;20292;-82
2022/07/20 06:51:56;;;;;;;17.20;5.30;;;;;;;;;;5075587;28;20293;-82
2022/07/20 06:54:24;;;;;;;17.23;5.90;;;;;;;;;;5087191;28;20207;-82
2022/07/20 06:56:53;;;;;;;7.40;5.80;;;;;;;;;;5058089;28;20201;-82
2022/07/20 06:59:24;;;;;;;9.10;6.27;;;;;;;;;;5065716;28;20201;-84
2022/07/20 07:01:52;;;;;;;10.47;8.53;;;;;;;;;;5084317;28;20281;-82
2022/07/20 07:04:21;;;;;;;10.33;9.47;;;;;;;;;;5093898;28;20203;-83
2022/07/20 07:06:50;;;;;;;6.97;5.63;;;;;;;;;;5095822;28;20195;-84
2022/07/20 07:09:20;;;;;;;11.93;8.90;;;;;;;;;;5070351;28;20201;-83
2022/07/20 07:11:56;;;;;;;16.70;8.00;;;;;;;;;;5076366;28;20235;-83
2022/07/20 07:14:25;;;;;;;12.67;7.93;;;;;;;;;;5072025;28;20205;-82
2022/07/20 07:16:54;;;;;;;13.50;7.50;;;;;;;;;;5098542;28;20203;-82
2022/07/20 07:19:25;;;;;;;7.73;6.00;;;;;;;;;;5079615;28;20269;-82
2022/07/20 07:21:54;;;;;;;14.97;8.57;;;;;;;;;;5092692;28;20290;-81
2022/07/20 07:24:24;;;;;;;15.63;8.67;;;;;;;;;;5086875;28;20197;-82
2022/07/20 07:26:52;;;;;;;9.77;6.03;;;;;;;;;;5076021;28;20219;-83
2022/07/20 07:29:24;;;;;;;12.30;5.13;;;;;;;;;;5073778;28;20192;-82
2022/07/20 07:31:53;;;;;;;14.47;5.90;;;;;;;;;;5088133;28;20194;-82
2022/07/20 07:34:22;;;;;;;13.97;8.97;;;;;;;;;;5077752;28;20228;-81
2022/07/20 07:36:50;;;;;;;16.23;8.20;;;;;;;;;;5088549;28;20282;-81
2022/07/20 07:39:18;;;;;;;8.30;5.43;;;;;;;;;;5092281;28;20219;-81
2022/07/20 07:41:48;;;;;;;11.50;6.83;;;;;;;;;;5074341;28;20696;-82
2022/07/20 07:44:17;;;;;;;11.97;8.23;;;;;;;;;;5075967;28;20236;-82
2022/07/20 07:46:45;;;;;;;15.07;9.00;;;;;;;;;;5090368;28;20204;-83
2022/07/20 07:49:14;;;;;;;8.03;5.53;;;;;;;;;;5076896;28;20240;-83
2022/07/20 07:51:42;;;;;;;7.77;5.80;;;;;;;;;;5065204;28;20216;-82
2022/07/20 07:54:10;;;;;;;18.77;7.30;;;;;;;;;;5073413;28;20206;-83
2022/07/20 07:56:41;;;;;;;10.50;6.60;;;;;;;;;;5075060;28;20216;-82
2022/07/20 07:59:10;;;;;;;10.83;4.67;;;;;;;;;;5093208;28;20216;-82
2022/07/20 08:02:00;;;;;;;8.57;4.27;;;;;;;;;;5092173;28;20208;-83
2022/07/20 08:04:28;;;;;;;6.00;4.80;;;;;;;;;;5076593;28;20212;-83
2022/07/20 08:06:57;;;;;;;7.03;5.53;;;;;;;;;;5081823;28;20211;-82
2022/07/20 08:09:25;;;;;;;6.97;5.40;;;;;;;;;;5089773;28;20247;-83
2022/07/20 08:11:54;;;;;;;14.47;5.33;;;;;;;;;;5072678;28;20201;-82
2022/07/20 08:14:24;;;;;;;8.13;5.57;;;;;;;;;;5094199;28;20201;-82
2022/07/20 08:16:53;;;;;;;8.37;4.97;;;;;;;;;;5075703;28;20208;-82
2022/07/20 08:19:21;;;;;;;5.87;4.67;;;;;;;;;;5072988;28;20235;-82
2022/07/20 08:21:50;;;;;;;8.03;7.23;;;;;;;;;;5071786;28;20201;-79
2022/07/20 08:24:18;;;;;;;4.37;3.77;;;;;;;;;;5088169;28;20353;-82
2022/07/20 08:26:47;;;;;;;10.50;7.10;;;;;;;;;;5079323;28;20194;-83
2022/07/20 08:29:16;;;;;;;9.73;7.33;;;;;;;;;;5070556;28;20237;-83
2022/07/20 08:31:45;;;;;;;6.03;4.90;;;;;;;;;;5080591;28;20236;-83
2022/07/20 08:34:14;;;;;;;7.63;4.37;;;;;;;;;;5093481;28;20226;-83
2022/07/20 08:36:49;;;;;;;5.07;4.53;;;;;;;;;;5087205;28;20206;-83
2022/07/20 08:39:18;;;;;;;6.30;4.87;;;;;;;;;;5095380;28;20204;-83
2022/07/20 08:41:47;;;;;;;11.73;6.83;;;;;;;;;;5074135;28;20196;-84
2022/07/20 08:44:15;;;;;;;6.27;4.23;;;;;;;;;;5074299;28;20213;-85
2022/07/20 08:46:45;;;;;;;5.20;4.57;;;;;;;;;;5066392;28;20201;-82
2022/07/20 08:49:14;;;;;;;9.03;4.80;;;;;;;;;;5068699;28;20244;-85
2022/07/20 08:51:44;;;;;;;9.43;6.00;;;;;;;;;;5070575;28;20221;-81
2022/07/20 08:54:12;;;;;;;6.20;4.17;;;;;;;;;;5074458;28;20198;-83
2022/07/20 08:56:41;;;;;;;8.40;5.30;;;;;;;;;;5070851;28;20193;-84
2022/07/20 08:59:09;;;;;;;14.37;7.13;;;;;;;;;;5071847;28;20202;-81
2022/07/20 09:01:56;;;;;;;6.87;4.30;;;;;;;;;;5097714;28;20209;-83
2022/07/20 09:04:25;;;;;;;7.70;4.70;;;;;;;;;;5081017;28;20198;-83
2022/07/20 09:06:54;;;;;;;3.50;2.87;;;;;;;;;;5092604;28;20194;-84
2022/07/20 09:09:23;;;;;;;2.90;2.47;;;;;;;;;;5090969;28;20368;-85
2022/07/20 09:11:52;;;;;;;6.47;3.77;;;;;;;;;;5084376;28;20266;-83
2022/07/20 09:14:35;;;;;;;6.17;4.57;;;;;;;;;;5076247;28;20225;-83
2022/07/20 09:17:15;;;;;;;7.73;3.97;;;;;;;;;;5067920;28;20297;-82
2022/07/20 09:20:06;;;;;;;6.50;3.80;;;;;;;;;;5071326;28;20205;-84
2022/07/20 09:22:41;;;;;;;4.27;3.60;;;;;;;;;;5071042;28;20226;-84
2022/07/20 09:25:10;;;;;;;3.53;3.00;;;;;;;;;;5066355;28;20199;-84
2022/07/20 09:27:40;;;;;;;6.37;3.27;;;;;;;;;;5068088;28;20244;-84
2022/07/20 09:30:12;;;;;;;4.73;1.40;;;;;;;;;;5075443;28;20260;-84
2022/07/20 09:32:50;;;;;;;5.87;3.87;;;;;;;;;;5072541;28;20219;-84
2022/07/20 09:35:19;;;;;;;3.93;2.60;;;;;;;;;;5076393;28;20223;-83
2022/07/20 09:37:55;;;;;;;6.23;2.70;;;;;;;;;;5072400;28;20200;-84
2022/07/20 09:40:24;;;;;;;1.50;1.40;;;;;;;;;;5086902;28;20213;-84
2022/07/20 09:42:52;;;;;;;5.27;2.70;;;;;;;;;;5076037;28;20188;-84
2022/07/20 09:45:25;;;;;;;3.57;3.13;;;;;;;;;;5076599;28;20201;-84
2022/07/20 09:48:10;;;;;;;4.67;2.90;;;;;;;;;;5075008;28;20197;-84
2022/07/20 09:50:39;;;;;;;5.87;2.90;;;;;;;;;;5079208;28;20235;-83
2022/07/20 09:53:10;;;;;;;2.83;1.70;;;;;;;;;;5079536;28;20214;-84
2022/07/20 09:55:39;;;;;;;2.70;2.30;;;;;;;;;;5082333;28;20621;-83
2022/07/20 09:58:07;;;;;;;2.33;2.13;;;;;;;;;;5079297;28;20212;-84
2022/07/20 10:00:38;;;;;;;3.47;1.93;;;;;;;;;;5078405;28;20206;-84
2022/07/20 10:03:15;;;;;;;4.60;2.13;;;;;;;;;;5097156;28;20249;-84
2022/07/20 10:05:44;;;;;;;4.57;2.87;;;;;;;;;;5083218;28;20227;-81
2022/07/20 10:08:15;;;;;;;3.17;1.83;;;;;;;;;;5079352;28;20208;-82
2022/07/20 10:10:43;;;;;;;3.87;1.57;;;;;;;;;;5095344;28;20280;-83
2022/07/20 10:13:15;;;;;;;4.73;2.40;;;;;;;;;;5079386;28;20203;-83
2022/07/20 10:15:50;;;;;;;3.37;2.80;;;;;;;;;;5084055;28;20211;-83
2022/07/20 10:18:19;;;;;;;2.90;1.80;;;;;;;;;;5078911;28;20288;-83
2022/07/20 10:20:50;;;;;;;6.73;3.47;;;;;;;;;;5081998;28;20216;-83
2022/07/20 10:23:27;;;;;;;5.90;1.87;;;;;;;;;;5079084;28;20203;-83
2022/07/20 10:25:56;;;;;;;7.50;2.60;;;;;;;;;;5095582;28;20196;-83
2022/07/20 10:28:42;;;;;;;3.63;2.20;;;;;;;;;;5066464;28;20203;-83
2022/07/20 10:31:16;;;;;;;5.43;2.80;;;;;;;;;;5097131;28;20272;-83
2022/07/20 10:33:45;;;;;;;7.87;4.47;;;;;;;;;;5079066;28;20210;-83
2022/07/20 10:39:16;;;;;;;1.57;1.47;;;;;;;;;;5081938;28;20204;-84
2022/07/20 10:42:13;;;;;;;4.17;2.27;;;;;;;;;;5077372;28;20198;-82
2022/07/20 10:44:42;;;;;;;1.43;1.33;;;;;;;;;;5078166;28;20211;-83
2022/07/20 10:47:31;;;;;;;7.33;3.33;;;;;;;;;;5078884;28;20249;-83
2022/07/20 10:50:02;;;;;;;5.00;2.67;;;;;;;;;;5075105;28;20235;-83
2022/07/20 10:52:31;;;;;;;3.40;2.43;;;;;;;;;;5085962;28;20221;-83
2022/07/20 10:55:00;;;;;;;4.07;2.10;;;;;;;;;;5054565;28;20209;-83
2022/07/20 10:57:31;;;;;;;3.63;2.23;;;;;;;;;;5073668;28;20201;-83
2022/07/20 11:00:05;;;;;;;6.63;2.93;;;;;;;;;;5075974;28;20280;-83
2022/07/20 11:02:33;;;;;;;5.57;2.87;;;;;;;;;;5061517;28;20211;-83
2022/07/20 11:05:02;;;;;;;2.90;2.63;;;;;;;;;;5091774;28;20212;-83
2022/07/20 11:07:34;;;;;;;0.67;0.67;;;;;;;;;;5074682;28;20246;-83
2022/07/20 11:10:19;;;;;;;3.63;2.13;;;;;;;;;;5064671;28;20196;-83
2022/07/20 11:12:59;;;;;;;4.23;2.67;;;;;;;;;;5068049;28;20208;-83
2022/07/20 11:15:41;;;;;;;4.63;1.87;;;;;;;;;;5067322;28;20214;-83
2022/07/20 11:18:11;;;;;;;12.27;4.10;;;;;;;;;;5062237;28;20215;-83
2022/07/20 11:20:46;;;;;;;6.50;3.73;;;;;;;;;;5075470;28;20200;-83
2022/07/20 11:23:15;;;;;;;3.70;2.80;;;;;;;;;;5060983;28;20231;-83
2022/07/20 11:25:49;;;;;;;6.97;3.47;;;;;;;;;;5074927;28;20239;-83
2022/07/20 11:28:22;;;;;;;8.73;2.97;;;;;;;;;;5069827;28;20258;-83
2022/07/20 11:30:52;;;;;;;3.87;2.90;;;;;;;;;;5075124;28;20200;-83
2022/07/20 11:33:25;;;;;;;8.90;3.23;;;;;;;;;;5075063;28;20217;-83
2022/07/20 11:35:54;;;;;;;2.60;2.37;;;;;;;;;;5073469;28;20243;-83
2022/07/20 11:38:23;;;;;;;5.27;3.23;;;;;;;;;;5073425;28;20197;-83
2022/07/20 11:40:58;;;;;;;2.70;2.07;;;;;;;;;;5073953;28;20204;-84
2022/07/20 11:43:28;;;;;;;3.47;2.60;;;;;;;;;;5074084;28;20205;-83
2022/07/20 11:46:08;;;;;;;4.03;2.53;;;;;;;;;;5075066;28;20197;-83
2022/07/20 11:48:37;;;;;;;9.93;5.33;;;;;;;;;;5074856;28;20204;-83
2022/07/20 11:51:25;;;;;;;8.27;5.63;;;;;;;;;;5094321;28;20240;-84
2022/07/20 11:53:55;;;;;;;2.63;2.27;;;;;;;;;;5077406;28;20219;-84
2022/07/20 11:56:24;;;;;;;1.47;1.13;;;;;;;;;;5077510;28;20223;-82
2022/07/20 11:58:55;;;;;;;8.23;2.10;;;;;;;;;;5093478;28;20224;-82
2022/07/20 12:01:25;;;;;;;3.50;3.23;;;;;;;;;;5086657;28;20255;-81
2022/07/20 12:03:54;;;;;;;4.53;2.73;;;;;;;;;;5072411;28;20206;-82
2022/07/20 12:06:23;;;;;;;6.10;2.40;;;;;;;;;;5076362;28;20259;-82
2022/07/20 12:09:02;;;;;;;3.77;3.33;;;;;;;;;;5076688;28;20208;-82
2022/07/20 12:11:30;;;;;;;10.03;3.07;;;;;;;;;;5069021;28;20213;-83
2022/07/20 12:14:00;;;;;;;5.30;3.47;;;;;;;;;;5089251;28;20224;-83
2022/07/20 12:16:38;;;;;;;8.13;3.93;;;;;;;;;;5094671;28;20214;-83
2022/07/20 12:19:07;;;;;;;2.60;2.37;;;;;;;;;;5062106;28;20220;-83
2022/07/20 12:21:41;;;;;;;5.43;3.43;;;;;;;;;;5077103;28;20199;-83
2022/07/20 12:24:10;;;;;;;2.03;1.80;;;;;;;;;;5076111;28;20199;-83
2022/07/20 12:26:38;;;;;;;3.60;2.40;;;;;;;;;;5076348;28;20210;-83
2022/07/20 12:29:21;;;;;;;6.20;3.40;;;;;;;;;;5075124;28;20198;-82
2022/07/20 12:32:00;;;;;;;2.63;2.40;;;;;;;;;;5076568;28;20209;-82
2022/07/20 12:34:31;;;;;;;3.80;1.67;;;;;;;;;;5076480;28;20218;-82
2022/07/20 12:37:00;;;;;;;6.33;2.93;;;;;;;;;;5072214;28;20226;-83
2022/07/20 12:39:39;;;;;;;2.03;1.53;;;;;;;;;;5066721;28;20226;-83
2022/07/20 12:42:12;;;;;;;2.20;1.80;;;;;;;;;;5071971;28;20190;-83
2022/07/20 12:45:00;;;;;;;1.37;1.27;;;;;;;;;;5074311;28;20207;-83
2022/07/20 12:47:29;;;;;;;1.83;1.57;;;;;;;;;;5080395;28;20275;-83
2022/07/20 12:50:18;;;;;;;4.40;1.90;;;;;;;;;;5058681;28;20246;-83
2022/07/20 12:52:46;;;;;;;4.03;2.60;;;;;;;;;;5074138;28;20218;-83
2022/07/20 12:55:15;;;;;;;7.37;2.80;;;;;;;;;;5056173;28;20198;-83
2022/07/20 12:57:43;;;;;;;4.23;1.70;;;;;;;;;;5059326;28;20208;-83
2022/07/20 13:00:14;;;;;;;5.37;2.60;;;;;;;;;;5055720;28;20252;-82
2022/07/20 13:02:42;;;;;;;1.90;1.67;;;;;;;;;;5056210;28;20205;-82
2022/07/20 13:05:11;;;;;;;4.60;2.17;;;;;;;;;;5073724;28;20203;-83
2022/07/20 13:07:40;;;;;;;7.40;3.27;;;;;;;;;;5074132;28;20233;-83
2022/07/20 13:10:08;;;;;;;2.47;1.33;;;;;;;;;;5065295;28;20188;-83
2022/07/20 13:12:37;;;;;;;4.03;1.80;;;;;;;;;;5079832;28;20232;-83
2022/07/20 13:15:06;;;;;;;3.70;1.27;;;;;;;;;;5073187;28;20293;-84
2022/07/20 13:17:56;;;;;;;1.50;1.33;;;;;;;;;;5070079;28;20205;-83
2022/07/20 13:20:25;;;;;;;1.83;1.73;;;;;;;;;;5077585;28;20256;-83
2022/07/20 13:22:54;;;;;;;6.83;3.13;;;;;;;;;;5059736;28;20200;-83
2022/07/20 13:25:23;;;;;;;6.60;2.37;;;;;;;;;;5059358;28;20192;-83
2022/07/20 13:27:52;;;;;;;0.97;0.77;;;;;;;;;;5059732;28;20217;-83
2022/07/20 13:30:21;;;;;;;2.70;1.63;;;;;;;;;;5076311;28;20282;-83
2022/07/20 13:32:49;;;;;;;3.23;1.20;;;;;;;;;;5065712;28;20212;-83
2022/07/20 13:35:19;;;;;;;6.60;1.30;;;;;;;;;;5071222;28;20218;-83
2022/07/20 13:37:47;;;;;;;0.90;0.80;;;;;;;;;;5050381;28;20218;-83
2022/07/20 13:40:16;;;;;;;4.13;1.77;;;;;;;;;;5059537;28;20203;-83
2022/07/20 13:42:45;;;;;;;2.67;0.70;;;;;;;;;;5048717;28;20201;-83
2022/07/20 13:45:13;;;;;;;1.83;1.43;;;;;;;;;;5045476;28;20243;-83
2022/07/20 13:47:42;;;;;;;2.70;1.73;;;;;;;;;;5059083;28;20213;-83
2022/07/20 13:50:11;;;;;;;9.23;1.23;;;;;;;;;;5078473;28;20234;-83
2022/07/20 13:52:42;;;;;;;1.10;1.07;;;;;;;;;;5066185;28;20288;-84
2022/07/20 13:55:10;;;;;;;1.93;1.57;;;;;;;;;;5095755;28;20208;-83
2022/07/20 13:57:39;;;;;;;4.90;2.30;;;;;;;;;;5078917;28;20204;-83
2022/07/20 14:00:09;;;;;;;2.40;2.03;;;;;;;;;;5096282;28;20189;-83
2022/07/20 14:02:42;;;;;;;4.13;2.17;;;;;;;;;;5095552;28;20213;-83
2022/07/20 14:05:11;;;;;;;3.20;1.80;;;;;;;;;;5096390;28;20201;-83
2022/07/20 14:07:39;;;;;;;1.83;1.73;;;;;;;;;;5096691;28;20197;-83
2022/07/20 14:10:12;;;;;;;3.03;1.87;;;;;;;;;;5096871;28;20191;-83
2022/07/20 14:12:41;;;;;;;1.93;1.80;;;;;;;;;;5092586;28;20197;-82
2022/07/20 14:15:10;;;;;;;4.13;1.57;;;;;;;;;;5086591;28;20223;-83
2022/07/20 14:17:39;;;;;;;1.63;1.50;;;;;;;;;;5079892;28;20227;-83
2022/07/20 14:20:09;;;;;;;6.43;1.60;;;;;;;;;;5067716;28;20208;-83
2022/07/20 14:22:37;;;;;;;2.83;1.53;;;;;;;;;;5079631;28;20204;-82
2022/07/20 14:25:06;;;;;;;4.30;1.47;;;;;;;;;;5079074;28;20239;-82
2022/07/20 14:27:36;;;;;;;2.40;1.70;;;;;;;;;;5078128;28;20215;-82
2022/07/20 14:30:05;;;;;;;6.17;2.07;;;;;;;;;;5078146;28;20207;-82
2022/07/20 14:32:34;;;;;;;2.30;1.83;;;;;;;;;;5086973;28;20207;-82
2022/07/20 14:35:02;;;;;;;5.63;2.20;;;;;;;;;;5074793;28;20234;-81
2022/07/20 14:37:36;;;;;;;2.53;2.10;;;;;;;;;;5078473;28;20200;-82
2022/07/20 14:40:05;;;;;;;2.13;0.97;;;;;;;;;;5063904;28;20310;-83
2022/07/20 14:42:34;;;;;;;5.03;1.70;;;;;;;;;;5095240;28;20228;-83
2022/07/20 14:45:04;;;;;;;7.20;2.03;;;;;;;;;;5078015;28;20216;-83
2022/07/20 14:47:32;;;;;;;6.30;2.47;;;;;;;;;;5096338;28;20203;-83
2022/07/20 14:50:01;;;;;;;2.53;1.23;;;;;;;;;;5095623;28;20258;-83
2022/07/20 14:52:29;;;;;;;3.73;1.77;;;;;;;;;;5078208;28;20200;-83
2022/07/20 14:54:58;;;;;;;1.23;0.97;;;;;;;;;;5078393;28;20222;-83
2022/07/20 14:57:26;;;;;;;7.47;2.77;;;;;;;;;;5077984;28;20218;-84
2022/07/20 14:59:57;;;;;;;4.13;2.90;;;;;;;;;;5084935;28;20204;-84
2022/07/20 15:02:27;;;;;;;1.50;1.20;;;;;;;;;;5078040;28;20208;-82